Aviation Digital Data Service (ADDS)

Output produced by TAFs form (0201 UTC 21 September 2014)
found at http://www.aviationweather.gov/adds/tafs/
 
KMDT 202324Z 2100/2124 15008KT P6SM SKC 
     FM210600 VRB02KT 4SM BR VCFG SKC 
     FM210900 VRB02KT 1SM BR VCFG SKC 
     FM211400 21006KT P6SM FEW050